sensor_id;sensor_type;location;lat;lon;timestamp;temperature;humidity
22503;DHT22;11418;48.118;9.992;2024-03-29T00:03:47;2.50;99.90
22503;DHT22;11418;48.118;9.992;2024-03-29T00:07:47;2.50;99.90
22503;DHT22;11418;48.118;9.992;2024-03-29T00:11:48;2.60;99.90
22503;DHT22;11418;48.118;9.992;2024-03-29T00:15:48;2.50;99.90
22503;DHT22;11418;48.118;9.992;2024-03-29T00:19:49;2.20;99.90
22503;DHT22;11418;48.118;9.992;2024-03-29T00:23:49;1.90;99.90
22503;DHT22;11418;48.118;9.992;2024-03-29T00:27:51;1.90;99.90
22503;DHT22;11418;48.118;9.992;2024-03-29T00:31:51;2.00;99.90
22503;DHT22;11418;48.118;9.992;2024-03-29T00:35:52;1.80;99.90
22503;DHT22;11418;48.118;9.992;2024-03-29T00:39:52;1.70;99.90
22503;DHT22;11418;48.118;9.992;2024-03-29T00:43:53;1.80;99.90
22503;DHT22;11418;48.118;9.992;2024-03-29T00:47:53;1.80;99.90
22503;DHT22;11418;48.118;9.992;2024-03-29T00:51:54;1.60;99.90
22503;DHT22;11418;48.118;9.992;2024-03-29T00:55:54;1.50;99.90
22503;DHT22;11418;48.118;9.992;2024-03-29T00:59:55;1.70;99.90
22503;DHT22;11418;48.118;9.992;2024-03-29T01:03:57;2.00;99.90
22503;DHT22;11418;48.118;9.992;2024-03-29T01:07:57;2.00;99.90
22503;DHT22;11418;48.118;9.992;2024-03-29T01:11:58;2.20;99.90
22503;DHT22;11418;48.118;9.992;2024-03-29T01:15:58;2.30;99.90
22503;DHT22;11418;48.118;9.992;2024-03-29T01:19:59;2.30;99.90
22503;DHT22;11418;48.118;9.992;2024-03-29T01:23:59;2.40;99.90
22503;DHT22;11418;48.118;9.992;2024-03-29T01:28:00;2.50;99.90
22503;DHT22;11418;48.118;9.992;2024-03-29T01:32:00;2.40;99.90
22503;DHT22;11418;48.118;9.992;2024-03-29T01:36:01;2.30;99.90
22503;DHT22;11418;48.118;9.992;2024-03-29T01:40:01;2.10;99.90
22503;DHT22;11418;48.118;9.992;2024-03-29T01:44:02;2.10;99.90
22503;DHT22;11418;48.118;9.992;2024-03-29T01:48:03;2.20;99.90
22503;DHT22;11418;48.118;9.992;2024-03-29T01:52:05;2.10;99.90
22503;DHT22;11418;48.118;9.992;2024-03-29T01:56:07;2.30;99.90
22503;DHT22;11418;48.118;9.992;2024-03-29T02:00:08;2.30;99.90
22503;DHT22;11418;48.118;9.992;2024-03-29T02:04:10;2.30;99.90
22503;DHT22;11418;48.118;9.992;2024-03-29T02:08:11;2.10;99.90
22503;DHT22;11418;48.118;9.992;2024-03-29T02:12:11;2.20;99.90
22503;DHT22;11418;48.118;9.992;2024-03-29T02:16:12;2.20;99.90
22503;DHT22;11418;48.118;9.992;2024-03-29T02:20:12;2.10;99.90
22503;DHT22;11418;48.118;9.992;2024-03-29T02:24:13;2.10;99.90
22503;DHT22;11418;48.118;9.992;2024-03-29T02:28:16;2.10;99.90
22503;DHT22;11418;48.118;9.992;2024-03-29T02:32:17;2.20;99.90
22503;DHT22;11418;48.118;9.992;2024-03-29T02:36:17;2.20;99.90
22503;DHT22;11418;48.118;9.992;2024-03-29T02:40:18;2.00;99.90
22503;DHT22;11418;48.118;9.992;2024-03-29T02:44:19;1.80;99.90
22503;DHT22;11418;48.118;9.992;2024-03-29T02:48:19;1.60;99.90
22503;DHT22;11418;48.118;9.992;2024-03-29T02:52:20;1.70;99.90
22503;DHT22;11418;48.118;9.992;2024-03-29T02:56:20;1.60;99.90
22503;DHT22;11418;48.118;9.992;2024-03-29T03:00:23;1.70;99.90
22503;DHT22;11418;48.118;9.992;2024-03-29T03:04:24;1.60;99.90
22503;DHT22;11418;48.118;9.992;2024-03-29T03:08:24;1.60;99.90
22503;DHT22;11418;48.118;9.992;2024-03-29T03:12:43;1.50;99.90
22503;DHT22;11418;48.118;9.992;2024-03-29T03:16:44;1.20;99.90
22503;DHT22;11418;48.118;9.992;2024-03-29T03:20:52;0.80;99.90
22503;DHT22;11418;48.118;9.992;2024-03-29T03:24:53;0.60;99.90
22503;DHT22;11418;48.118;9.992;2024-03-29T03:28:53;0.40;99.90
22503;DHT22;11418;48.118;9.992;2024-03-29T03:32:53;0.20;99.90
22503;DHT22;11418;48.118;9.992;2024-03-29T03:36:54;0.20;99.90
22503;DHT22;11418;48.118;9.992;2024-03-29T03:40:55;0.00;99.90
22503;DHT22;11418;48.118;9.992;2024-03-29T03:44:55;-0.10;99.90
22503;DHT22;11418;48.118;9.992;2024-03-29T03:48:56;0.20;99.90
22503;DHT22;11418;48.118;9.992;2024-03-29T03:52:57;0.20;99.90
22503;DHT22;11418;48.118;9.992;2024-03-29T03:56:57;0.10;99.90
22503;DHT22;11418;48.118;9.992;2024-03-29T04:01:06;-0.10;99.90
22503;DHT22;11418;48.118;9.992;2024-03-29T04:05:07;-0.10;99.90
22503;DHT22;11418;48.118;9.992;2024-03-29T04:09:07;0.00;99.90
22503;DHT22;11418;48.118;9.992;2024-03-29T04:13:08;-0.20;99.90
22503;DHT22;11418;48.118;9.992;2024-03-29T04:17:12;-0.20;99.90
22503;DHT22;11418;48.118;9.992;2024-03-29T04:21:12;-0.10;99.90
22503;DHT22;11418;48.118;9.992;2024-03-29T04:25:13;-0.10;99.90
22503;DHT22;11418;48.118;9.992;2024-03-29T04:29:15;-0.10;99.90
22503;DHT22;11418;48.118;9.992;2024-03-29T04:33:15;-0.20;99.90
22503;DHT22;11418;48.118;9.992;2024-03-29T04:37:16;-0.10;99.90
22503;DHT22;11418;48.118;9.992;2024-03-29T04:41:17;0.40;99.90
22503;DHT22;11418;48.118;9.992;2024-03-29T04:45:17;0.60;99.90
22503;DHT22;11418;48.118;9.992;2024-03-29T04:49:24;0.60;99.90
22503;DHT22;11418;48.118;9.992;2024-03-29T04:53:39;0.20;99.90
22503;DHT22;11418;48.118;9.992;2024-03-29T04:57:40;0.00;99.90
22503;DHT22;11418;48.118;9.992;2024-03-29T05:01:40;-0.10;99.90
22503;DHT22;11418;48.118;9.992;2024-03-29T05:05:44;-0.10;99.90
22503;DHT22;11418;48.118;9.992;2024-03-29T05:09:44;-0.20;99.90
22503;DHT22;11418;48.118;9.992;2024-03-29T05:13:45;-0.10;99.90
22503;DHT22;11418;48.118;9.992;2024-03-29T05:17:45;-0.20;99.90
22503;DHT22;11418;48.118;9.992;2024-03-29T05:21:46;-0.30;99.90
22503;DHT22;11418;48.118;9.992;2024-03-29T05:25:46;-0.10;99.90
22503;DHT22;11418;48.118;9.992;2024-03-29T05:29:48;-0.20;99.90
22503;DHT22;11418;48.118;9.992;2024-03-29T05:33:50;0.00;99.90
22503;DHT22;11418;48.118;9.992;2024-03-29T05:37:50;0.20;99.90
22503;DHT22;11418;48.118;9.992;2024-03-29T05:41:53;0.50;99.90
22503;DHT22;11418;48.118;9.992;2024-03-29T05:45:54;0.80;99.90
22503;DHT22;11418;48.118;9.992;2024-03-29T05:49:54;0.90;99.90
22503;DHT22;11418;48.118;9.992;2024-03-29T05:53:55;1.10;99.90
22503;DHT22;11418;48.118;9.992;2024-03-29T05:57:56;1.20;99.90
22503;DHT22;11418;48.118;9.992;2024-03-29T06:01:57;1.50;99.90
22503;DHT22;11418;48.118;9.992;2024-03-29T06:05:57;1.70;99.90
22503;DHT22;11418;48.118;9.992;2024-03-29T06:09:59;1.80;99.90
22503;DHT22;11418;48.118;9.992;2024-03-29T06:14:00;1.90;99.90
22503;DHT22;11418;48.118;9.992;2024-03-29T06:18:01;2.00;99.90
22503;DHT22;11418;48.118;9.992;2024-03-29T06:22:02;1.90;99.90
22503;DHT22;11418;48.118;9.992;2024-03-29T06:26:02;2.00;99.90
22503;DHT22;11418;48.118;9.992;2024-03-29T06:30:04;2.70;99.90
22503;DHT22;11418;48.118;9.992;2024-03-29T06:34:05;2.90;99.90
22503;DHT22;11418;48.118;9.992;2024-03-29T06:38:05;3.40;99.90
22503;DHT22;11418;48.118;9.992;2024-03-29T06:42:06;3.40;99.90
22503;DHT22;11418;48.118;9.992;2024-03-29T06:46:10;3.80;99.90
22503;DHT22;11418;48.118;9.992;2024-03-29T06:50:10;4.80;99.90
22503;DHT22;11418;48.118;9.992;2024-03-29T06:54:11;5.10;99.90
22503;DHT22;11418;48.118;9.992;2024-03-29T06:58:11;5.20;99.90
22503;DHT22;11418;48.118;9.992;2024-03-29T07:02:12;5.40;99.90
22503;DHT22;11418;48.118;9.992;2024-03-29T07:06:12;5.60;99.90
22503;DHT22;11418;48.118;9.992;2024-03-29T07:10:13;6.10;99.90
22503;DHT22;11418;48.118;9.992;2024-03-29T07:14:15;7.00;99.90
22503;DHT22;11418;48.118;9.992;2024-03-29T07:18:15;8.00;99.90
22503;DHT22;11418;48.118;9.992;2024-03-29T07:22:16;8.40;99.90
22503;DHT22;11418;48.118;9.992;2024-03-29T07:26:16;8.60;99.90
22503;DHT22;11418;48.118;9.992;2024-03-29T07:30:17;8.90;99.90
22503;DHT22;11418;48.118;9.992;2024-03-29T07:34:18;8.90;99.90
22503;DHT22;11418;48.118;9.992;2024-03-29T07:38:20;9.00;99.90
22503;DHT22;11418;48.118;9.992;2024-03-29T07:42:21;9.20;99.90
22503;DHT22;11418;48.118;9.992;2024-03-29T07:46:23;9.40;99.90
22503;DHT22;11418;48.118;9.992;2024-03-29T07:50:24;9.70;99.90
22503;DHT22;11418;48.118;9.992;2024-03-29T07:54:25;9.70;99.90
22503;DHT22;11418;48.118;9.992;2024-03-29T07:58:25;9.50;99.90
22503;DHT22;11418;48.118;9.992;2024-03-29T08:02:26;9.60;99.90
22503;DHT22;11418;48.118;9.992;2024-03-29T08:06:26;9.80;99.90
22503;DHT22;11418;48.118;9.992;2024-03-29T08:10:27;9.90;99.90
22503;DHT22;11418;48.118;9.992;2024-03-29T08:14:27;10.00;99.90
22503;DHT22;11418;48.118;9.992;2024-03-29T08:18:28;10.30;99.90
22503;DHT22;11418;48.118;9.992;2024-03-29T08:22:29;10.70;99.90
22503;DHT22;11418;48.118;9.992;2024-03-29T08:26:32;11.00;99.90
22503;DHT22;11418;48.118;9.992;2024-03-29T08:30:33;11.20;99.90
22503;DHT22;11418;48.118;9.992;2024-03-29T08:34:36;11.40;99.90
22503;DHT22;11418;48.118;9.992;2024-03-29T08:38:40;11.60;99.90
22503;DHT22;11418;48.118;9.992;2024-03-29T08:42:43;11.60;99.90
22503;DHT22;11418;48.118;9.992;2024-03-29T08:46:44;12.00;99.90
22503;DHT22;11418;48.118;9.992;2024-03-29T08:50:45;12.70;99.90
22503;DHT22;11418;48.118;9.992;2024-03-29T08:54:46;12.90;99.90
22503;DHT22;11418;48.118;9.992;2024-03-29T08:58:47;13.20;99.90
22503;DHT22;11418;48.118;9.992;2024-03-29T09:02:47;13.40;99.90
22503;DHT22;11418;48.118;9.992;2024-03-29T09:06:48;13.60;99.90
22503;DHT22;11418;48.118;9.992;2024-03-29T09:10:48;13.60;99.90
22503;DHT22;11418;48.118;9.992;2024-03-29T09:14:49;14.10;99.90
22503;DHT22;11418;48.118;9.992;2024-03-29T09:18:51;14.80;99.90
22503;DHT22;11418;48.118;9.992;2024-03-29T09:22:52;15.20;99.90
22503;DHT22;11418;48.118;9.992;2024-03-29T09:26:53;15.30;99.90
22503;DHT22;11418;48.118;9.992;2024-03-29T09:31:00;15.80;99.90
22503;DHT22;11418;48.118;9.992;2024-03-29T09:35:00;16.40;99.90
22503;DHT22;11418;48.118;9.992;2024-03-29T09:39:01;16.50;99.90
22503;DHT22;11418;48.118;9.992;2024-03-29T09:43:04;16.70;99.90
22503;DHT22;11418;48.118;9.992;2024-03-29T09:47:05;16.90;99.90
22503;DHT22;11418;48.118;9.992;2024-03-29T09:51:07;17.10;99.90
22503;DHT22;11418;48.118;9.992;2024-03-29T09:55:09;17.20;99.90
22503;DHT22;11418;48.118;9.992;2024-03-29T09:59:10;16.80;99.90
22503;DHT22;11418;48.118;9.992;2024-03-29T10:03:11;16.60;99.90
22503;DHT22;11418;48.118;9.992;2024-03-29T10:07:13;16.30;99.90
22503;DHT22;11418;48.118;9.992;2024-03-29T10:11:15;16.10;99.90
22503;DHT22;11418;48.118;9.992;2024-03-29T10:15:20;16.00;99.90
22503;DHT22;11418;48.118;9.992;2024-03-29T10:19:21;15.80;99.90
22503;DHT22;11418;48.118;9.992;2024-03-29T10:23:22;15.70;99.90
22503;DHT22;11418;48.118;9.992;2024-03-29T10:27:28;15.80;99.90
22503;DHT22;11418;48.118;9.992;2024-03-29T10:31:36;16.00;99.90
22503;DHT22;11418;48.118;9.992;2024-03-29T10:35:37;16.50;99.90
22503;DHT22;11418;48.118;9.992;2024-03-29T10:39:42;16.40;99.90
22503;DHT22;11418;48.118;9.992;2024-03-29T10:43:43;15.80;99.90
22503;DHT22;11418;48.118;9.992;2024-03-29T10:47:46;15.50;99.90
22503;DHT22;11418;48.118;9.992;2024-03-29T10:51:47;15.70;99.90
22503;DHT22;11418;48.118;9.992;2024-03-29T10:55:50;16.10;99.90
22503;DHT22;11418;48.118;9.992;2024-03-29T11:00:03;16.20;99.90
22503;DHT22;11418;48.118;9.992;2024-03-29T11:04:15;16.30;99.90
22503;DHT22;11418;48.118;9.992;2024-03-29T11:08:22;16.30;99.90
22503;DHT22;11418;48.118;9.992;2024-03-29T11:12:24;15.90;99.90
22503;DHT22;11418;48.118;9.992;2024-03-29T11:16:25;16.50;99.90
22503;DHT22;11418;48.118;9.992;2024-03-29T11:20:27;17.00;99.90
22503;DHT22;11418;48.118;9.992;2024-03-29T11:24:39;17.40;99.90
22503;DHT22;11418;48.118;9.992;2024-03-29T11:28:41;17.30;99.90
22503;DHT22;11418;48.118;9.992;2024-03-29T11:32:43;17.70;99.90
22503;DHT22;11418;48.118;9.992;2024-03-29T11:36:45;18.50;99.90
22503;DHT22;11418;48.118;9.992;2024-03-29T11:41:04;18.70;99.90
22503;DHT22;11418;48.118;9.992;2024-03-29T11:45:05;18.90;99.90
22503;DHT22;11418;48.118;9.992;2024-03-29T11:49:10;18.90;99.90
22503;DHT22;11418;48.118;9.992;2024-03-29T11:53:12;18.90;99.90
22503;DHT22;11418;48.118;9.992;2024-03-29T11:57:13;19.40;99.90
22503;DHT22;11418;48.118;9.992;2024-03-29T12:01:13;19.70;99.90
22503;DHT22;11418;48.118;9.992;2024-03-29T12:05:14;19.60;99.90
22503;DHT22;11418;48.118;9.992;2024-03-29T12:09:16;18.90;99.90
22503;DHT22;11418;48.118;9.992;2024-03-29T12:13:17;18.70;99.90
22503;DHT22;11418;48.118;9.992;2024-03-29T12:17:18;19.50;99.90
22503;DHT22;11418;48.118;9.992;2024-03-29T12:21:19;21.10;99.90
22503;DHT22;11418;48.118;9.992;2024-03-29T12:25:21;21.20;99.80
22503;DHT22;11418;48.118;9.992;2024-03-29T12:29:23;21.50;99.90
22503;DHT22;11418;48.118;9.992;2024-03-29T12:33:24;21.90;96.40
22503;DHT22;11418;48.118;9.992;2024-03-29T12:37:24;21.60;97.20
22503;DHT22;11418;48.118;9.992;2024-03-29T12:41:29;21.00;97.50
22503;DHT22;11418;48.118;9.992;2024-03-29T12:45:33;22.00;95.80
22503;DHT22;11418;48.118;9.992;2024-03-29T12:49:34;22.30;99.10
22503;DHT22;11418;48.118;9.992;2024-03-29T12:53:45;24.60;92.70
22503;DHT22;11418;48.118;9.992;2024-03-29T12:57:51;24.60;90.30
22503;DHT22;11418;48.118;9.992;2024-03-29T13:02:00;24.00;91.20
22503;DHT22;11418;48.118;9.992;2024-03-29T13:06:24;25.50;87.20
22503;DHT22;11418;48.118;9.992;2024-03-29T13:10:49;24.50;91.50
22503;DHT22;11418;48.118;9.992;2024-03-29T13:14:56;25.00;87.80
22503;DHT22;11418;48.118;9.992;2024-03-29T13:23:12;25.30;86.30
22503;DHT22;11418;48.118;9.992;2024-03-29T13:27:15;24.20;89.70
22503;DHT22;11418;48.118;9.992;2024-03-29T13:31:16;23.60;90.00
22503;DHT22;11418;48.118;9.992;2024-03-29T13:35:17;23.80;89.40
22503;DHT22;11418;48.118;9.992;2024-03-29T13:39:24;25.20;90.60
22503;DHT22;11418;48.118;9.992;2024-03-29T13:43:28;27.90;83.60
22503;DHT22;11418;48.118;9.992;2024-03-29T13:47:28;28.10;81.00
22503;DHT22;11418;48.118;9.992;2024-03-29T13:51:29;28.20;75.40
22503;DHT22;11418;48.118;9.992;2024-03-29T13:55:33;29.30;70.80
22503;DHT22;11418;48.118;9.992;2024-03-29T13:59:37;29.00;70.20
22503;DHT22;11418;48.118;9.992;2024-03-29T14:03:44;26.90;75.20
22503;DHT22;11418;48.118;9.992;2024-03-29T14:08:01;25.40;77.60
22503;DHT22;11418;48.118;9.992;2024-03-29T14:12:06;23.70;81.70
22503;DHT22;11418;48.118;9.992;2024-03-29T14:16:22;22.70;87.00
22503;DHT22;11418;48.118;9.992;2024-03-29T14:20:39;22.40;88.00
22503;DHT22;11418;48.118;9.992;2024-03-29T14:24:56;22.50;88.00
22503;DHT22;11418;48.118;9.992;2024-03-29T14:29:10;22.80;89.80
22503;DHT22;11418;48.118;9.992;2024-03-29T14:33:37;22.70;90.40
22503;DHT22;11418;48.118;9.992;2024-03-29T14:38:21;22.90;90.10
22503;DHT22;11418;48.118;9.992;2024-03-29T14:43:07;23.20;88.40
22503;DHT22;11418;48.118;9.992;2024-03-29T14:47:16;22.80;88.90
22503;DHT22;11418;48.118;9.992;2024-03-29T14:51:40;22.80;91.80
22503;DHT22;11418;48.118;9.992;2024-03-29T14:55:41;23.00;94.40
22503;DHT22;11418;48.118;9.992;2024-03-29T14:59:42;22.90;95.10
22503;DHT22;11418;48.118;9.992;2024-03-29T15:03:42;22.40;90.40
22503;DHT22;11418;48.118;9.992;2024-03-29T15:07:43;21.90;91.20
22503;DHT22;11418;48.118;9.992;2024-03-29T15:11:43;21.20;93.80
22503;DHT22;11418;48.118;9.992;2024-03-29T15:15:58;20.20;96.00
22503;DHT22;11418;48.118;9.992;2024-03-29T15:19:59;19.60;97.90
22503;DHT22;11418;48.118;9.992;2024-03-29T15:24:03;19.60;98.80
22503;DHT22;11418;48.118;9.992;2024-03-29T15:28:09;19.40;98.60
22503;DHT22;11418;48.118;9.992;2024-03-29T15:32:10;19.10;90.00
22503;DHT22;11418;48.118;9.992;2024-03-29T15:36:10;19.40;88.00
22503;DHT22;11418;48.118;9.992;2024-03-29T15:40:13;19.40;90.20
22503;DHT22;11418;48.118;9.992;2024-03-29T15:44:13;19.40;87.80
22503;DHT22;11418;48.118;9.992;2024-03-29T15:48:16;19.10;90.00
22503;DHT22;11418;48.118;9.992;2024-03-29T15:52:16;19.00;88.80
22503;DHT22;11418;48.118;9.992;2024-03-29T15:56:17;19.10;89.90
22503;DHT22;11418;48.118;9.992;2024-03-29T16:00:18;18.60;91.20
22503;DHT22;11418;48.118;9.992;2024-03-29T16:04:19;18.30;91.20
22503;DHT22;11418;48.118;9.992;2024-03-29T16:08:20;18.00;90.60
22503;DHT22;11418;48.118;9.992;2024-03-29T16:12:21;17.90;87.20
22503;DHT22;11418;48.118;9.992;2024-03-29T16:16:21;17.90;85.00
22503;DHT22;11418;48.118;9.992;2024-03-29T16:20:22;17.90;85.30
22503;DHT22;11418;48.118;9.992;2024-03-29T16:24:22;17.80;87.20
22503;DHT22;11418;48.118;9.992;2024-03-29T16:28:24;17.80;84.80
22503;DHT22;11418;48.118;9.992;2024-03-29T16:32:24;17.70;85.60
22503;DHT22;11418;48.118;9.992;2024-03-29T16:36:25;17.60;83.50
22503;DHT22;11418;48.118;9.992;2024-03-29T16:40:27;17.50;83.70
22503;DHT22;11418;48.118;9.992;2024-03-29T16:44:28;17.50;85.20
22503;DHT22;11418;48.118;9.992;2024-03-29T16:48:28;17.40;84.00
22503;DHT22;11418;48.118;9.992;2024-03-29T16:52:29;17.60;81.60
22503;DHT22;11418;48.118;9.992;2024-03-29T16:56:30;17.50;83.80
22503;DHT22;11418;48.118;9.992;2024-03-29T17:00:31;17.50;81.90
22503;DHT22;11418;48.118;9.992;2024-03-29T17:04:31;17.50;82.80
22503;DHT22;11418;48.118;9.992;2024-03-29T17:08:33;17.50;82.60
22503;DHT22;11418;48.118;9.992;2024-03-29T17:12:33;17.40;84.40
22503;DHT22;11418;48.118;9.992;2024-03-29T17:16:34;17.10;86.80
22503;DHT22;11418;48.118;9.992;2024-03-29T17:20:36;17.00;87.80
22503;DHT22;11418;48.118;9.992;2024-03-29T17:24:37;16.50;91.40
22503;DHT22;11418;48.118;9.992;2024-03-29T17:28:37;16.20;93.50
22503;DHT22;11418;48.118;9.992;2024-03-29T17:32:38;15.70;94.60
22503;DHT22;11418;48.118;9.992;2024-03-29T17:36:39;15.30;91.80
22503;DHT22;11418;48.118;9.992;2024-03-29T17:40:40;15.10;92.50
22503;DHT22;11418;48.118;9.992;2024-03-29T17:44:41;14.80;93.60
22503;DHT22;11418;48.118;9.992;2024-03-29T17:48:41;14.40;95.10
22503;DHT22;11418;48.118;9.992;2024-03-29T17:52:42;14.30;96.30
22503;DHT22;11418;48.118;9.992;2024-03-29T17:56:42;13.90;97.60
22503;DHT22;11418;48.118;9.992;2024-03-29T18:00:43;13.80;97.90
22503;DHT22;11418;48.118;9.992;2024-03-29T18:04:43;13.30;99.70
22503;DHT22;11418;48.118;9.992;2024-03-29T18:08:44;12.90;99.90
22503;DHT22;11418;48.118;9.992;2024-03-29T18:12:44;12.50;99.90
22503;DHT22;11418;48.118;9.992;2024-03-29T18:16:45;12.40;99.90
22503;DHT22;11418;48.118;9.992;2024-03-29T18:20:47;12.30;99.90
22503;DHT22;11418;48.118;9.992;2024-03-29T18:24:48;12.20;99.90
22503;DHT22;11418;48.118;9.992;2024-03-29T18:28:48;12.00;99.90
22503;DHT22;11418;48.118;9.992;2024-03-29T18:32:49;11.70;99.90
22503;DHT22;11418;48.118;9.992;2024-03-29T18:36:49;11.50;99.90
22503;DHT22;11418;48.118;9.992;2024-03-29T18:40:50;11.20;99.90
22503;DHT22;11418;48.118;9.992;2024-03-29T18:44:54;11.30;99.90
22503;DHT22;11418;48.118;9.992;2024-03-29T18:48:55;10.90;99.90
22503;DHT22;11418;48.118;9.992;2024-03-29T18:52:55;10.70;99.90
22503;DHT22;11418;48.118;9.992;2024-03-29T18:56:56;10.80;99.90
22503;DHT22;11418;48.118;9.992;2024-03-29T19:00:57;10.60;99.90
22503;DHT22;11418;48.118;9.992;2024-03-29T19:04:58;10.60;99.90
22503;DHT22;11418;48.118;9.992;2024-03-29T19:08:59;11.10;99.90
22503;DHT22;11418;48.118;9.992;2024-03-29T19:12:59;10.90;99.90
22503;DHT22;11418;48.118;9.992;2024-03-29T19:17:00;10.70;99.90
22503;DHT22;11418;48.118;9.992;2024-03-29T19:21:00;10.60;99.90
22503;DHT22;11418;48.118;9.992;2024-03-29T19:25:01;10.60;99.90
22503;DHT22;11418;48.118;9.992;2024-03-29T19:29:01;10.50;99.90
22503;DHT22;11418;48.118;9.992;2024-03-29T19:33:03;10.70;99.90
22503;DHT22;11418;48.118;9.992;2024-03-29T19:37:03;11.80;99.90
22503;DHT22;11418;48.118;9.992;2024-03-29T19:41:04;13.00;99.90
22503;DHT22;11418;48.118;9.992;2024-03-29T19:45:05;13.90;99.00
22503;DHT22;11418;48.118;9.992;2024-03-29T19:49:06;14.30;98.50
22503;DHT22;11418;48.118;9.992;2024-03-29T19:53:06;14.60;96.70
22503;DHT22;11418;48.118;9.992;2024-03-29T19:57:07;14.60;96.80
22503;DHT22;11418;48.118;9.992;2024-03-29T20:01:08;14.80;95.70
22503;DHT22;11418;48.118;9.992;2024-03-29T20:05:09;14.90;95.50
22503;DHT22;11418;48.118;9.992;2024-03-29T20:09:10;15.00;94.60
22503;DHT22;11418;48.118;9.992;2024-03-29T20:13:11;14.90;95.00
22503;DHT22;11418;48.118;9.992;2024-03-29T20:17:15;14.80;94.90
22503;DHT22;11418;48.118;9.992;2024-03-29T20:21:18;14.90;94.20
22503;DHT22;11418;48.118;9.992;2024-03-29T20:25:19;15.10;93.20
22503;DHT22;11418;48.118;9.992;2024-03-29T20:29:20;15.20;92.20
22503;DHT22;11418;48.118;9.992;2024-03-29T20:33:21;15.30;91.30
22503;DHT22;11418;48.118;9.992;2024-03-29T20:37:22;15.40;91.40
22503;DHT22;11418;48.118;9.992;2024-03-29T20:41:23;15.60;91.00
22503;DHT22;11418;48.118;9.992;2024-03-29T20:45:23;15.70;90.00
22503;DHT22;11418;48.118;9.992;2024-03-29T20:49:24;15.60;90.60
22503;DHT22;11418;48.118;9.992;2024-03-29T20:53:26;15.50;90.80
22503;DHT22;11418;48.118;9.992;2024-03-29T20:57:27;15.40;90.30
22503;DHT22;11418;48.118;9.992;2024-03-29T21:01:27;15.30;91.50
22503;DHT22;11418;48.118;9.992;2024-03-29T21:05:46;15.40;91.10
22503;DHT22;11418;48.118;9.992;2024-03-29T21:09:49;15.20;91.10
22503;DHT22;11418;48.118;9.992;2024-03-29T21:13:50;15.10;91.00
22503;DHT22;11418;48.118;9.992;2024-03-29T21:17:50;15.00;91.10
22503;DHT22;11418;48.118;9.992;2024-03-29T21:21:51;15.10;90.60
22503;DHT22;11418;48.118;9.992;2024-03-29T21:25:52;15.10;90.40
22503;DHT22;11418;48.118;9.992;2024-03-29T21:29:52;15.10;91.10
22503;DHT22;11418;48.118;9.992;2024-03-29T21:33:55;15.00;90.90
22503;DHT22;11418;48.118;9.992;2024-03-29T21:37:56;14.90;91.30
22503;DHT22;11418;48.118;9.992;2024-03-29T21:41:56;14.70;91.70
22503;DHT22;11418;48.118;9.992;2024-03-29T21:45:59;14.60;91.60
22503;DHT22;11418;48.118;9.992;2024-03-29T21:49:59;14.40;92.40
22503;DHT22;11418;48.118;9.992;2024-03-29T21:54:00;14.20;91.80
22503;DHT22;11418;48.118;9.992;2024-03-29T21:58:01;14.70;92.10
22503;DHT22;11418;48.118;9.992;2024-03-29T22:02:03;14.40;92.20
22503;DHT22;11418;48.118;9.992;2024-03-29T22:06:03;14.40;92.30
22503;DHT22;11418;48.118;9.992;2024-03-29T22:10:04;14.20;93.10
22503;DHT22;11418;48.118;9.992;2024-03-29T22:14:08;14.10;93.10
22503;DHT22;11418;48.118;9.992;2024-03-29T22:18:08;14.20;94.00
22503;DHT22;11418;48.118;9.992;2024-03-29T22:22:12;13.60;96.20
22503;DHT22;11418;48.118;9.992;2024-03-29T22:26:13;13.10;97.10
22503;DHT22;11418;48.118;9.992;2024-03-29T22:30:14;12.80;98.20
22503;DHT22;11418;48.118;9.992;2024-03-29T22:34:14;12.70;98.40
22503;DHT22;11418;48.118;9.992;2024-03-29T22:38:15;12.50;99.20
22503;DHT22;11418;48.118;9.992;2024-03-29T22:42:16;12.40;99.90
22503;DHT22;11418;48.118;9.992;2024-03-29T22:46:16;12.40;96.20
22503;DHT22;11418;48.118;9.992;2024-03-29T22:50:17;13.00;94.70
22503;DHT22;11418;48.118;9.992;2024-03-29T22:54:17;13.60;93.80
22503;DHT22;11418;48.118;9.992;2024-03-29T22:58:18;13.90;92.80
22503;DHT22;11418;48.118;9.992;2024-03-29T23:02:19;14.00;92.70
22503;DHT22;11418;48.118;9.992;2024-03-29T23:06:19;13.90;92.90
22503;DHT22;11418;48.118;9.992;2024-03-29T23:10:20;14.10;91.90
22503;DHT22;11418;48.118;9.992;2024-03-29T23:14:20;14.20;91.50
22503;DHT22;11418;48.118;9.992;2024-03-29T23:18:21;14.20;91.70
22503;DHT22;11418;48.118;9.992;2024-03-29T23:22:21;14.30;91.60
22503;DHT22;11418;48.118;9.992;2024-03-29T23:26:22;14.20;91.40
22503;DHT22;11418;48.118;9.992;2024-03-29T23:30:22;14.20;90.70
22503;DHT22;11418;48.118;9.992;2024-03-29T23:34:23;14.30;88.00
22503;DHT22;11418;48.118;9.992;2024-03-29T23:38:24;14.60;86.60
22503;DHT22;11418;48.118;9.992;2024-03-29T23:42:24;14.90;88.20
22503;DHT22;11418;48.118;9.992;2024-03-29T23:46:26;14.70;85.10
22503;DHT22;11418;48.118;9.992;2024-03-29T23:50:27;15.00;84.70
22503;DHT22;11418;48.118;9.992;2024-03-29T23:54:29;14.80;84.80
22503;DHT22;11418;48.118;9.992;2024-03-29T23:58:31;14.80;84.30
